| time (UTC) | temp F | wind direction | speed MPH | gust MPH | rain 1hr in | rain 24hr in | rain mn in | humidity % | barometer mb |
| 20260903133504 | 48 | 319 | 0.0 | 0.0 | 0.01 | 0.33 | 0.25 | 92 | 1016.2 |
| 20260903132504 | 48 | 317 | 0.0 | 0.0 | 0.01 | 0.33 | 0.25 | 92 | 1016.1 |
| 20260903132004 | 48 | 317 | 0.0 | 0.0 | 0.01 | 0.33 | 0.25 | 92 | 1016.0 |
| 20260903131504 | 48 | 317 | 0.0 | 0.0 | 0.01 | 0.33 | 0.25 | 91 | 1016.0 |
| 20260903131005 | 48 | 317 | 0.0 | 0.0 | 0.01 | 0.33 | 0.25 | 91 | 1016.0 |
| 20260903130504 | 48 | 317 | 0.0 | 0.0 | 0.01 | 0.33 | 0.25 | 91 | 1016.0 |
| 20260903125504 | 49 | 316 | 0.0 | 0.0 | 0.01 | 0.33 | 0.25 | 91 | 1015.8 |
| 20260903125004 | 49 | 293 | 0.0 | 0.0 | 0.00 | 0.32 | 0.24 | 91 | 1015.7 |
| 20260903124504 | 49 | 293 | 0.0 | 0.0 | 0.00 | 0.32 | 0.24 | 91 | 1015.8 |
| 20260903124004 | 49 | 293 | 0.0 | 0.0 | 0.00 | 0.32 | 0.24 | 91 | 1015.8 |
| 20260903123504 | 49 | 293 | 0.0 | 0.0 | 0.01 | 0.32 | 0.24 | 91 | 1015.8 |
| 20260903122005 | 49 | 293 | 0.0 | 0.0 | 0.01 | 0.32 | 0.24 | 91 | 1015.6 |
| 20260903121504 | 49 | 293 | 0.0 | 0.0 | 0.01 | 0.32 | 0.24 | 91 | 1015.6 |
| 20260903121004 | 49 | 293 | 0.0 | 0.0 | 0.01 | 0.32 | 0.24 | 91 | 1015.7 |
| 20260903120504 | 49 | 293 | 0.0 | 0.0 | 0.01 | 0.32 | 0.24 | 90 | 1015.6 |
| 20260903120004 | 49 | 293 | 0.0 | 0.0 | 0.01 | 0.32 | 0.24 | 90 | 1015.6 |
| 20260903115504 | 49 | 293 | 0.0 | 0.0 | 0.01 | 0.32 | 0.24 | 90 | 1015.6 |
| 20260903114503 | 49 | 293 | 0.0 | 0.0 | 0.01 | 0.32 | 0.24 | 90 | 1015.6 |
| 20260903114004 | 49 | 293 | 0.0 | 0.0 | 0.01 | 0.32 | 0.24 | 90 | 1015.7 |
| 20260903113004 | 49 | 293 | 0.0 | 0.0 | 0.00 | 0.31 | 0.23 | 91 | 1015.6 |
| 20260903112504 | 49 | 293 | 0.0 | 0.0 | 0.00 | 0.31 | 0.23 | 90 | 1015.6 |
| 20260903112004 | 49 | 293 | 0.0 | 0.0 | 0.00 | 0.31 | 0.23 | 90 | 1015.5 |
| 20260903111504 | 49 | 293 | 0.0 | 0.0 | 0.00 | 0.31 | 0.23 | 90 | 1015.4 |
| 20260903111004 | 49 | 293 | 0.0 | 0.0 | 0.00 | 0.31 | 0.23 | 90 | 1015.4 |
| 20260903110504 | 49 | 293 | 0.0 | 0.0 | 0.00 | 0.31 | 0.23 | 91 | 1015.3 |
| 20260903110003 | 49 | 293 | 0.0 | 0.0 | 0.00 | 0.31 | 0.23 | 91 | 1015.3 |
| 20260903105504 | 49 | 355 | 0.0 | 0.0 | 0.00 | 0.31 | 0.23 | 92 | 1015.3 |
| 20260903104504 | 49 | 355 | 0.0 | 0.0 | 0.00 | 0.31 | 0.23 | 91 | 1015.3 |
| 20260903103504 | 49 | 355 | 0.0 | 0.0 | 0.01 | 0.31 | 0.23 | 92 | 1015.3 |
| 20260903103004 | 49 | 355 | 0.0 | 0.0 | 0.01 | 0.31 | 0.23 | 92 | 1015.3 |
| 20260903102003 | 49 | 355 | 0.0 | 0.0 | 0.02 | 0.31 | 0.23 | 92 | 1015.3 |
| 20260903101504 | 49 | 355 | 0.0 | 0.0 | 0.03 | 0.31 | 0.23 | 93 | 1015.3 |
| 20260903101004 | 49 | 355 | 0.0 | 0.0 | 0.03 | 0.31 | 0.23 | 93 | 1015.2 |
| 20260903100504 | 49 | 5 | 0.0 | 0.0 | 0.03 | 0.31 | 0.23 | 93 | 1015.2 |
| 20260903100004 | 49 | 5 | 0.0 | 0.0 | 0.03 | 0.31 | 0.23 | 93 | 1015.2 |
| 20260903095504 | 49 | 5 | 0.0 | 0.0 | 0.03 | 0.31 | 0.23 | 93 | 1015.1 |
| 20260903095005 | 49 | 5 | 0.0 | 0.0 | 0.04 | 0.31 | 0.23 | 93 | 1015.1 |
| 20260903094504 | 49 | 5 | 0.0 | 0.0 | 0.04 | 0.31 | 0.23 | 93 | 1015.1 |
| 20260903094004 | 49 | 5 | 0.0 | 0.0 | 0.04 | 0.30 | 0.22 | 93 | 1015.1 |
| 20260903093504 | 49 | 5 | 0.0 | 0.0 | 0.04 | 0.30 | 0.22 | 93 | 1015.1 |
| 20260903093004 | 49 | 5 | 0.0 | 0.0 | 0.05 | 0.30 | 0.22 | 93 | 1015.2 |
| 20260903092504 | 50 | 5 | 0.0 | 0.0 | 0.04 | 0.29 | 0.21 | 93 | 1015.1 |
| 20260903091503 | 50 | 5 | 0.0 | 0.0 | 0.06 | 0.28 | 0.20 | 93 | 1015.2 |
| 20260903091004 | 50 | 5 | 0.0 | 0.0 | 0.07 | 0.28 | 0.20 | 93 | 1015.2 |
| 20260903090504 | 50 | 5 | 0.0 | 0.0 | 0.09 | 0.28 | 0.20 | 93 | 1015.1 |
| 20260903090004 | 50 | 5 | 0.0 | 0.0 | 0.10 | 0.28 | 0.20 | 93 | 1015.2 |
| 20260903085504 | 50 | 5 | 0.0 | 0.0 | 0.12 | 0.28 | 0.20 | 93 | 1015.3 |
| 20260903085005 | 50 | 5 | 0.0 | 0.0 | 0.12 | 0.27 | 0.19 | 93 | 1015.3 |
| 20260903083503 | 50 | 5 | 0.0 | 0.0 | 0.15 | 0.26 | 0.18 | 93 | 1015.3 |
| 20260903083004 | 50 | 5 | 0.0 | 0.0 | 0.14 | 0.25 | 0.17 | 93 | 1015.4 |
| 20260903082504 | 50 | 5 | 0.0 | 0.0 | 0.15 | 0.25 | 0.17 | 93 | 1015.4 |
| 20260903082004 | 50 | 5 | 0.0 | 0.0 | 0.14 | 0.23 | 0.15 | 93 | 1015.5 |
| 20260903081503 | 50 | 5 | 0.0 | 0.0 | 0.13 | 0.22 | 0.14 | 93 | 1015.5 |
| 20260903081004 | 50 | 5 | 0.0 | 0.0 | 0.12 | 0.21 | 0.13 | 93 | 1015.5 |
| 20260903080504 | 50 | 5 | 0.0 | 0.0 | 0.11 | 0.19 | 0.11 | 93 | 1015.4 |
| 20260903080004 | 50 | 5 | 0.0 | 0.0 | 0.10 | 0.18 | 0.10 | 92 | 1015.4 |
| 20260903075504 | 50 | 5 | 0.0 | 0.0 | 0.08 | 0.16 | 0.08 | 92 | 1015.3 |
| 20260903075004 | 50 | 5 | 0.0 | 0.0 | 0.07 | 0.15 | 0.07 | 92 | 1015.3 |
| 20260903074004 | 50 | 5 | 0.0 | 0.0 | 0.06 | 0.13 | 0.05 | 92 | 1015.2 |
| 20260903073504 | 50 | 5 | 0.0 | 0.0 | 0.04 | 0.11 | 0.03 | 92 | 1015.2 |
| 20260903072004 | 50 | 5 | 0.0 | 0.0 | 0.02 | 0.09 | 0.01 | 91 | 1015.1 |
| 20260903071503 | 50 | 0 | 0.0 | 0.0 | 0.02 | 0.09 | 0.01 | 90 | 1015.1 |
| 20260903071004 | 51 | 355 | 0.0 | 0.0 | 0.02 | 0.09 | 0.01 | 90 | 1015.1 |
| 20260903070504 | 51 | 355 | 0.0 | 0.0 | 0.01 | 0.08 | 0.00 | 89 | 1015.0 |
| 20260903070004 | 51 | 355 | 0.0 | 0.0 | 0.01 | 0.08 | 0.00 | 89 | 1014.9 |
| 20260903064004 | 52 | 31 | 0.0 | 0.0 | 0.00 | 0.07 | 0.07 | 86 | 1014.6 |
| 20260903063504 | 52 | 355 | 0.0 | 0.0 | 0.00 | 0.07 | 0.07 | 85 | 1014.7 |
| 20260903063004 | 52 | 17 | 0.0 | 0.0 | 0.00 | 0.07 | 0.07 | 83 | 1015.0 |
| 20260903062504 | 52 | 26 | 0.0 | 0.0 | 0.00 | 0.07 | 0.07 | 82 | 1014.8 |
| 20260903062004 | 52 | 32 | 0.0 | 0.0 | 0.00 | 0.07 | 0.07 | 82 | 1014.6 |
| 20260903061504 | 52 | 355 | 0.0 | 0.0 | 0.00 | 0.07 | 0.07 | 82 | 1014.7 |
| 20260903060504 | 52 | 334 | 0.0 | 2.0 | 0.00 | 0.07 | 0.07 | 81 | 1014.4 |
| 20260903060004 | 53 | 339 | 0.0 | 0.0 | 0.00 | 0.07 | 0.07 | 81 | 1014.5 |
| 20260903055505 | 53 | 331 | 0.0 | 0.0 | 0.00 | 0.07 | 0.07 | 81 | 1014.5 |
| 20260903055004 | 53 | 346 | 0.0 | 0.0 | 0.00 | 0.07 | 0.07 | 81 | 1014.6 |
| 20260903054504 | 53 | 338 | 0.0 | 0.0 | 0.00 | 0.07 | 0.07 | 81 | 1014.6 |
| 20260903054004 | 53 | 346 | 0.0 | 0.0 | 0.00 | 0.07 | 0.07 | 81 | 1014.7 |
| 20260903053504 | 53 | 338 | 0.0 | 0.0 | 0.00 | 0.07 | 0.07 | 81 | 1014.7 |
| 20260903053004 | 53 | 329 | 0.0 | 0.0 | 0.00 | 0.07 | 0.07 | 80 | 1014.8 |
| 20260903052504 | 53 | 328 | 0.0 | 0.0 | 0.00 | 0.07 | 0.07 | 80 | 1014.8 |
| 20260903052004 | 53 | 321 | 0.0 | 1.0 | 0.00 | 0.07 | 0.07 | 80 | 1014.9 |
| 20260903051504 | 53 | 324 | 0.0 | 0.0 | 0.00 | 0.07 | 0.07 | 80 | 1014.9 |
| 20260903051004 | 53 | 359 | 0.0 | 0.0 | 0.00 | 0.07 | 0.07 | 80 | 1014.8 |
| 20260903050004 | 54 | 321 | 0.0 | 1.0 | 0.00 | 0.07 | 0.07 | 79 | 1014.8 |
| 20260903045004 | 54 | 318 | 0.0 | 3.0 | 0.00 | 0.07 | 0.07 | 79 | 1014.7 |
| 20260903044504 | 54 | 311 | 1.0 | 3.0 | 0.00 | 0.07 | 0.07 | 78 | 1014.6 |
| 20260903044004 | 54 | 308 | 1.0 | 5.0 | 0.00 | 0.07 | 0.07 | 78 | 1014.6 |
| 20260903043504 | 54 | 318 | 1.0 | 5.0 | 0.00 | 0.07 | 0.07 | 78 | 1014.6 |
| 20260903043004 | 54 | 313 | 1.0 | 5.0 | 0.00 | 0.07 | 0.07 | 78 | 1014.7 |
| 20260903042504 | 54 | 320 | 0.0 | 3.0 | 0.00 | 0.07 | 0.07 | 78 | 1014.7 |
| 20260903042004 | 54 | 317 | 1.0 | 3.0 | 0.00 | 0.07 | 0.07 | 78 | 1014.7 |
| 20260903041504 | 54 | 307 | 1.0 | 3.0 | 0.00 | 0.07 | 0.07 | 77 | 1014.7 |
| 20260903041004 | 55 | 316 | 0.0 | 3.0 | 0.00 | 0.07 | 0.07 | 77 | 1014.7 |
| 20260903040504 | 55 | 309 | 1.0 | 3.0 | 0.00 | 0.07 | 0.07 | 76 | 1014.6 |
| 20260903040004 | 55 | 312 | 1.0 | 3.0 | 0.00 | 0.07 | 0.07 | 76 | 1014.6 |
| 20260903035504 | 55 | 305 | 1.0 | 3.0 | 0.00 | 0.07 | 0.07 | 76 | 1014.5 |
| 20260903035005 | 56 | 309 | 2.0 | 8.0 | 0.00 | 0.07 | 0.07 | 75 | 1014.5 |
| 20260903034504 | 56 | 308 | 1.0 | 6.0 | 0.00 | 0.07 | 0.07 | 75 | 1014.4 |
| 20260903034004 | 56 | 304 | 2.0 | 8.0 | 0.00 | 0.07 | 0.07 | 74 | 1014.4 |
| 20260903033504 | 57 | 310 | 2.0 | 8.0 | 0.00 | 0.07 | 0.07 | 73 | 1014.4 |
| 20260903032005 | 58 | 304 | 1.0 | 7.0 | 0.00 | 0.07 | 0.07 | 69 | 1014.1 |
| 20260903031504 | 59 | 301 | 1.0 | 3.0 | 0.00 | 0.07 | 0.07 | 67 | 1014.0 |
| 20260903031004 | 59 | 309 | 0.0 | 2.0 | 0.00 | 0.07 | 0.07 | 67 | 1013.8 |
| 20260903030505 | 59 | 313 | 0.0 | 2.0 | 0.00 | 0.07 | 0.07 | 67 | 1013.8 |
| 20260903030004 | 59 | 311 | 0.0 | 3.0 | 0.00 | 0.07 | 0.07 | 66 | 1013.8 |
| 20260903025503 | 59 | 308 | 1.0 | 3.0 | 0.00 | 0.07 | 0.07 | 67 | 1013.7 |
| 20260903025003 | 59 | 317 | 0.0 | 3.0 | 0.00 | 0.07 | 0.07 | 67 | 1013.7 |
| 20260903024504 | 59 | 312 | 0.0 | 3.0 | 0.00 | 0.07 | 0.07 | 67 | 1013.8 |
| 20260903023504 | 60 | 313 | 2.0 | 6.0 | 0.00 | 0.07 | 0.07 | 66 | 1013.8 |
| 20260903023004 | 60 | 308 | 1.0 | 3.0 | 0.00 | 0.07 | 0.07 | 67 | 1013.8 |
| 20260903022504 | 60 | 316 | 0.0 | 3.0 | 0.00 | 0.07 | 0.07 | 66 | 1013.7 |
| 20260903022004 | 61 | 320 | 0.0 | 2.0 | 0.00 | 0.07 | 0.07 | 69 | 1013.7 |
| 20260903021004 | 62 | 2 | 0.0 | 0.0 | 0.00 | 0.07 | 0.07 | 67 | 1013.5 |
| 20260903020504 | 62 | 65 | 0.0 | 0.0 | 0.00 | 0.07 | 0.07 | 67 | 1013.4 |
| 20260903020004 | 62 | 65 | 0.0 | 0.0 | 0.00 | 0.07 | 0.07 | 66 | 1013.4 |
| 20260903015004 | 63 | 70 | 0.0 | 0.0 | 0.00 | 0.07 | 0.07 | 65 | 1013.5 |
| 20260903014504 | 63 | 72 | 0.0 | 0.0 | 0.00 | 0.07 | 0.07 | 65 | 1013.4 |
| 20260903014003 | 63 | 71 | 0.0 | 0.0 | 0.00 | 0.07 | 0.07 | 65 | 1013.5 |
| 20260903013503 | 63 | 71 | 0.0 | 0.0 | 0.00 | 0.07 | 0.07 | 65 | 1013.4 |
| 20260903013004 | 63 | 71 | 0.0 | 0.0 | 0.00 | 0.07 | 0.07 | 64 | 1013.4 |
| 20260903012004 | 63 | 71 | 0.0 | 0.0 | 0.00 | 0.07 | 0.07 | 64 | 1013.3 |
| 20260903011504 | 63 | 71 | 0.0 | 0.0 | 0.00 | 0.07 | 0.07 | 64 | 1013.3 |
| 20260903011004 | 63 | 71 | 0.0 | 0.0 | 0.00 | 0.07 | 0.07 | 64 | 1013.3 |
| 20260903010504 | 63 | 72 | 0.0 | 0.0 | 0.00 | 0.07 | 0.07 | 64 | 1013.3 |
| 20260903010004 | 64 | 73 | 0.0 | 0.0 | 0.00 | 0.07 | 0.07 | 63 | 1013.3 |
| 20260903005504 | 63 | 73 | 0.0 | 0.0 | 0.00 | 0.07 | 0.07 | 64 | 1013.3 |
| 20260903005004 | 63 | 10 | 0.0 | 0.0 | 0.00 | 0.07 | 0.07 | 64 | 1013.2 |
| 20260903004504 | 63 | 84 | 0.0 | 0.0 | 0.00 | 0.07 | 0.07 | 63 | 1013.3 |
| 20260903004004 | 64 | 80 | 0.0 | 0.0 | 0.00 | 0.07 | 0.07 | 63 | 1013.3 |
| 20260903003504 | 63 | 76 | 0.0 | 0.0 | 0.00 | 0.07 | 0.07 | 63 | 1013.4 |
| 20260903003004 | 64 | 58 | 0.0 | 0.0 | 0.00 | 0.07 | 0.07 | 63 | 1013.3 |
| 20260903002504 | 64 | 59 | 0.0 | 0.0 | 0.00 | 0.07 | 0.07 | 62 | 1013.4 |
| 20260903002004 | 64 | 55 | 0.0 | 0.0 | 0.00 | 0.07 | 0.07 | 62 | 1013.5 |
| 20260903001504 | 64 | 56 | 0.0 | 0.0 | 0.00 | 0.07 | 0.07 | 61 | 1013.5 |
| 20260903001003 | 64 | 55 | 0.0 | 1.0 | 0.00 | 0.07 | 0.07 | 60 | 1013.4 |
| 20260903000004 | 64 | 52 | 0.0 | 0.0 | 0.00 | 0.07 | 0.07 | 61 | 1013.5 |
| 20260902235504 | 64 | 79 | 0.0 | 0.0 | 0.00 | 0.07 | 0.07 | 62 | 1013.5 |
| 20260902235004 | 63 | 64 | 0.0 | 2.0 | 0.00 | 0.07 | 0.07 | 62 | 1013.4 |
| 20260902234504 | 64 | 69 | 0.0 | 2.0 | 0.00 | 0.07 | 0.07 | 62 | 1013.4 |
| 20260902234004 | 64 | 87 | 0.0 | 1.0 | 0.00 | 0.07 | 0.07 | 63 | 1013.4 |
| 20260902233504 | 64 | 70 | 0.0 | 1.0 | 0.00 | 0.07 | 0.07 | 62 | 1013.5 |
| 20260902233004 | 64 | 71 | 0.0 | 1.0 | 0.00 | 0.07 | 0.07 | 62 | 1013.5 |
| 20260902232504 | 64 | 61 | 0.0 | 1.0 | 0.00 | 0.07 | 0.07 | 62 | 1013.5 |
| 20260902232004 | 64 | 63 | 0.0 | 2.0 | 0.00 | 0.07 | 0.07 | 61 | 1013.5 |
| 20260902231004 | 64 | 82 | 0.0 | 3.0 | 0.00 | 0.07 | 0.07 | 62 | 1013.5 |
| 20260902230504 | 64 | 64 | 0.0 | 2.0 | 0.00 | 0.07 | 0.07 | 61 | 1013.5 |
| 20260902230004 | 65 | 92 | 0.0 | 1.0 | 0.00 | 0.07 | 0.07 | 62 | 1013.5 |
| 20260902225504 | 64 | 99 | 0.0 | 3.0 | 0.00 | 0.07 | 0.07 | 60 | 1013.4 |
| 20260902225004 | 64 | 93 | 0.0 | 2.0 | 0.00 | 0.07 | 0.07 | 64 | 1013.5 |
| 20260902224504 | 64 | 94 | 1.0 | 2.0 | 0.00 | 0.07 | 0.07 | 64 | 1013.5 |
| 20260902224004 | 63 | 97 | 0.0 | 3.0 | 0.00 | 0.07 | 0.07 | 64 | 1013.6 |
| 20260902223504 | 63 | 120 | 0.0 | 3.0 | 0.00 | 0.07 | 0.07 | 62 | 1013.6 |
| 20260902223004 | 63 | 97 | 0.0 | 3.0 | 0.00 | 0.07 | 0.07 | 62 | 1013.7 |
| 20260902222504 | 63 | 92 | 0.0 | 3.0 | 0.00 | 0.07 | 0.07 | 63 | 1013.7 |
| 20260902222004 | 63 | 86 | 1.0 | 2.0 | 0.00 | 0.07 | 0.07 | 66 | 1013.6 |
| 20260902221503 | 63 | 76 | 0.0 | 2.0 | 0.00 | 0.07 | 0.07 | 67 | 1013.7 |
| 20260902221003 | 62 | 90 | 0.0 | 3.0 | 0.00 | 0.07 | 0.07 | 65 | 1013.7 |
| 20260902220504 | 63 | 76 | 1.0 | 3.0 | 0.00 | 0.07 | 0.07 | 66 | 1013.8 |
| 20260902220003 | 63 | 68 | 1.0 | 2.0 | 0.00 | 0.07 | 0.07 | 65 | 1013.9 |
| 20260902215004 | 62 | 122 | 0.0 | 1.0 | 0.00 | 0.07 | 0.07 | 65 | 1014.0 |
| 20260902214504 | 62 | 104 | 1.0 | 3.0 | 0.00 | 0.07 | 0.07 | 66 | 1014.0 |
| 20260902214004 | 62 | 105 | 0.0 | 3.0 | 0.00 | 0.07 | 0.07 | 65 | 1014.1 |
| 20260902213503 | 62 | 99 | 0.0 | 1.0 | 0.00 | 0.07 | 0.07 | 67 | 1014.1 |
| 20260902213004 | 61 | 116 | 0.0 | 2.0 | 0.00 | 0.07 | 0.07 | 66 | 1014.3 |
| 20260902212503 | 61 | 95 | 0.0 | 2.0 | 0.00 | 0.07 | 0.07 | 66 | 1014.4 |
| 20260902211004 | 61 | 93 | 0.0 | 3.0 | 0.00 | 0.07 | 0.07 | 67 | 1014.5 |
| 20260902210004 | 61 | 77 | 1.0 | 6.0 | 0.00 | 0.07 | 0.07 | 66 | 1014.6 |
| 20260902205504 | 61 | 117 | 0.0 | 2.0 | 0.00 | 0.07 | 0.07 | 68 | 1014.6 |
| 20260902205004 | 61 | 95 | 1.0 | 3.0 | 0.00 | 0.07 | 0.07 | 67 | 1014.6 |
| 20260902204503 | 60 | 91 | 1.0 | 3.0 | 0.00 | 0.07 | 0.07 | 70 | 1014.7 |
| 20260902204004 | 60 | 93 | 0.0 | 3.0 | 0.00 | 0.07 | 0.07 | 69 | 1014.7 |
| 20260902203004 | 60 | 94 | 1.0 | 3.0 | 0.00 | 0.07 | 0.07 | 69 | 1014.9 |
| 20260902202504 | 60 | 72 | 1.0 | 5.0 | 0.00 | 0.07 | 0.07 | 70 | 1015.0 |
| 20260902202004 | 60 | 90 | 1.0 | 3.0 | 0.00 | 0.07 | 0.07 | 71 | 1015.0 |
| 20260902201504 | 59 | 69 | 1.0 | 3.0 | 0.00 | 0.07 | 0.07 | 73 | 1015.0 |
| 20260902201003 | 59 | 113 | 1.0 | 3.0 | 0.00 | 0.07 | 0.07 | 71 | 1015.1 |
| 20260902200503 | 58 | 98 | 0.0 | 3.0 | 0.00 | 0.07 | 0.07 | 74 | 1015.2 |
| 20260902200004 | 58 | 84 | 0.0 | 3.0 | 0.00 | 0.07 | 0.07 | 74 | 1015.2 |
| 20260902195504 | 58 | 125 | 0.0 | 1.0 | 0.00 | 0.07 | 0.07 | 74 | 1015.3 |
| 20260902195004 | 57 | 141 | 0.0 | 2.0 | 0.00 | 0.07 | 0.07 | 75 | 1015.4 |
| 20260902194004 | 57 | 95 | 1.0 | 2.0 | 0.00 | 0.07 | 0.07 | 78 | 1015.6 |
| 20260902193504 | 57 | 129 | 0.0 | 2.0 | 0.00 | 0.07 | 0.07 | 77 | 1015.6 |
| 20260902193003 | 56 | 101 | 0.0 | 3.0 | 0.00 | 0.07 | 0.07 | 83 | 1015.7 |
| 20260902192504 | 55 | 97 | 0.0 | 2.0 | 0.00 | 0.07 | 0.07 | 80 | 1015.7 |
| 20260902192004 | 55 | 91 | 0.0 | 2.0 | 0.00 | 0.07 | 0.07 | 83 | 1015.8 |
| 20260902191504 | 55 | 125 | 0.0 | 2.0 | 0.00 | 0.07 | 0.07 | 86 | 1015.9 |
| 20260902191004 | 54 | 134 | 0.0 | 2.0 | 0.00 | 0.07 | 0.07 | 85 | 1015.9 |
| 20260902190504 | 54 | 117 | 0.0 | 3.0 | 0.00 | 0.07 | 0.07 | 88 | 1015.9 |
| 20260902190004 | 54 | 107 | 0.0 | 3.0 | 0.00 | 0.07 | 0.07 | 89 | 1016.0 |
| 20260902185504 | 53 | 139 | 0.0 | 2.0 | 0.00 | 0.07 | 0.07 | 88 | 1016.0 |
| 20260902185004 | 53 | 146 | 0.0 | 2.0 | 0.00 | 0.07 | 0.07 | 90 | 1016.1 |
| 20260902184504 | 53 | 135 | 0.0 | 2.0 | 0.00 | 0.07 | 0.07 | 90 | 1016.0 |
| 20260902184004 | 52 | 137 | 0.0 | 1.0 | 0.00 | 0.07 | 0.07 | 91 | 1016.0 |
| 20260902183504 | 52 | 138 | 0.0 | 1.0 | 0.00 | 0.07 | 0.07 | 91 | 1016.0 |
| 20260902183004 | 52 | 168 | 0.0 | 1.0 | 0.00 | 0.07 | 0.07 | 92 | 1016.0 |
| 20260902182504 | 52 | 165 | 0.0 | 2.0 | 0.00 | 0.07 | 0.07 | 91 | 1016.0 |
| 20260902182004 | 52 | 159 | 0.0 | 1.0 | 0.00 | 0.07 | 0.07 | 92 | 1016.0 |
| 20260902181504 | 51 | 163 | 0.0 | 1.0 | 0.00 | 0.07 | 0.07 | 91 | 1015.9 |
| 20260902181004 | 52 | 173 | 0.0 | 0.0 | 0.00 | 0.07 | 0.07 | 92 | 1015.9 |
| 20260902180503 | 51 | 142 | 0.0 | 0.0 | 0.00 | 0.07 | 0.07 | 93 | 1015.9 |
| 20260902180006 | 51 | 143 | 0.0 | 1.0 | 0.00 | 0.07 | 0.07 | 92 | 1015.9 |
| 20260902175004 | 51 | 134 | 0.0 | 0.0 | 0.00 | 0.07 | 0.07 | 92 | 1016.0 |
| 20260902174503 | 50 | 117 | 0.0 | 0.0 | 0.00 | 0.07 | 0.07 | 92 | 1016.0 |
| 20260902174003 | 50 | 123 | 0.0 | 1.0 | 0.01 | 0.07 | 0.07 | 92 | 1015.9 |
| 20260902173504 | 50 | 127 | 0.0 | 2.0 | 0.01 | 0.07 | 0.07 | 92 | 1016.0 |
| 20260902173004 | 50 | 134 | 0.0 | 2.0 | 0.01 | 0.07 | 0.07 | 92 | 1016.0 |
| 20260902172004 | 50 | 140 | 0.0 | 3.0 | 0.02 | 0.07 | 0.07 | 92 | 1016.0 |
| 20260902171503 | 49 | 147 | 0.0 | 2.0 | 0.02 | 0.07 | 0.07 | 92 | 1016.0 |
| 20260902171004 | 49 | 123 | 0.0 | 2.0 | 0.03 | 0.07 | 0.07 | 92 | 1015.6 |
| 20260902170504 | 49 | 107 | 0.0 | 3.0 | 0.03 | 0.07 | 0.07 | 92 | 1015.4 |
| 20260902165503 | 49 | 128 | 2.0 | 3.0 | 0.04 | 0.07 | 0.07 | 91 | 1015.3 |
| 20260902165004 | 49 | 124 | 2.0 | 6.0 | 0.05 | 0.07 | 0.07 | 90 | 1015.1 |
| 20260902164504 | 49 | 114 | 3.0 | 6.0 | 0.05 | 0.07 | 0.07 | 90 | 1015.0 |
| 20260902164004 | 49 | 106 | 3.0 | 7.0 | 0.04 | 0.06 | 0.06 | 90 | 1015.2 |
| 20260902163503 | 50 | 109 | 2.0 | 6.0 | 0.04 | 0.06 | 0.06 | 89 | 1015.7 |
| 20260902163004 | 50 | 135 | 1.0 | 5.0 | 0.04 | 0.06 | 0.06 | 89 | 1015.8 |
| 20260902162004 | 51 | 93 | 0.0 | 2.0 | 0.04 | 0.05 | 0.05 | 90 | 1015.6 |
| 20260902161503 | 51 | 128 | 0.0 | 1.0 | 0.04 | 0.05 | 0.05 | 90 | 1015.7 |
| 20260902161004 | 51 | 88 | 1.0 | 6.0 | 0.03 | 0.04 | 0.04 | 89 | 1015.6 |
| 20260902160504 | 51 | 120 | 2.0 | 6.0 | 0.03 | 0.04 | 0.04 | 88 | 1015.9 |
| 20260902160007 | 52 | 126 | 1.0 | 3.0 | 0.03 | 0.03 | 0.03 | 87 | 1016.1 |
| 20260902155004 | 53 | 140 | 0.0 | 0.0 | 0.02 | 0.02 | 0.02 | 84 | 1016.2 |
| 20260902154503 | 54 | 232 | 0.0 | 0.0 | 0.02 | 0.02 | 0.02 | 83 | 1016.0 |
| 20260902153004 | 54 | 226 | 0.0 | 3.0 | 0.02 | 0.02 | 0.02 | 81 | 1015.7 |
| 20260902152504 | 54 | 229 | 0.0 | 2.0 | 0.02 | 0.02 | 0.02 | 81 | 1015.6 |
| 20260902152004 | 54 | 231 | 0.0 | 2.0 | 0.01 | 0.01 | 0.01 | 81 | 1015.5 |
| 20260902151504 | 54 | 226 | 0.0 | 2.0 | 0.01 | 0.01 | 0.01 | 80 | 1015.4 |
| 20260902151004 | 55 | 233 | 0.0 | 2.0 | 0.01 | 0.01 | 0.01 | 79 | 1015.4 |
| 20260902150504 | 55 | 239 | 0.0 | 2.0 | 0.01 | 0.01 | 0.01 | 78 | 1015.4 |
| 20260902150004 | 55 | 246 | 0.0 | 2.0 | 0.00 | 0.00 | 0.00 | 77 | 1015.5 |
| 20260902145505 | 55 | 230 | 0.0 | 2.0 | 0.00 | 0.00 | 0.00 | 76 | 1015.5 |
| 20260902145003 | 55 | 224 | 0.0 | 1.0 | 0.00 | 0.00 | 0.00 | 75 | 1015.5 |
| 20260902144504 | 55 | 246 | 0.0 | 1.0 | 0.00 | 0.00 | 0.00 | 73 | 1015.3 |
| 20260902144004 | 55 | 263 | 0.0 | 2.0 | 0.00 | 0.00 | 0.00 | 73 | 1015.3 |
| 20260902143504 | 55 | 307 | 0.0 | 2.0 | 0.00 | 0.00 | 0.00 | 73 | 1015.3 |
| 20260902142004 | 55 | 311 | 0.0 | 1.0 | 0.00 | 0.00 | 0.00 | 71 | 1015.0 |
| 20260902141004 | 55 | 308 | 0.0 | 0.0 | 0.00 | 0.00 | 0.00 | 70 | 1014.7 |
| 20260902135504 | 54 | 289 | 0.0 | 1.0 | 0.00 | 0.00 | 0.00 | 68 | 1014.9 |
| 20260902135004 | 54 | 238 | 0.0 | 0.0 | 0.00 | 0.00 | 0.00 | 67 | 1015.0 |
| 20260902134504 | 54 | 302 | 0.0 | 1.0 | 0.00 | 0.00 | 0.00 | 67 | 1014.8 |
| 20260902134004 | 53 | 136 | 0.0 | 2.0 | 0.00 | 0.00 | 0.00 | 68 | 1014.8 |